Time;durP1;ratioP1;P1;durP2;ratioP2;P2;SDS_P1;SDS_P2;PMS_P1;PMS_P2;Temp;Humidity;BMP_temperature;BMP_pressure;BME280_temperature;BME280_humidity;BME280_pressure;Samples;Min_cycle;Max_cycle;Signal;HPM_P1;HPM_P2
2021/04/24 00:00:29;;;;;;;3.80;2.90;;;3.60;99.90;;;;;;5003677;28;20559;-70
2021/04/24 00:03:00;;;;;;;3.83;3.33;;;3.50;99.90;;;;;;5021351;28;20791;-70
2021/04/24 00:05:30;;;;;;;9.20;3.50;;;3.50;99.90;;;;;;5020551;28;20439;-70
2021/04/24 00:07:59;;;;;;;5.03;3.97;;;3.60;99.90;;;;;;5019487;28;20444;-70
2021/04/24 00:10:28;;;;;;;4.20;2.83;;;3.60;99.90;;;;;;5000546;28;20527;-74
2021/04/24 00:12:57;;;;;;;7.00;3.23;;;3.50;99.90;;;;;;5002284;28;20455;-69
2021/04/24 00:15:50;;;;;;;3.70;3.10;;;3.50;99.90;;;;;;5019803;28;20543;-69
2021/04/24 00:18:17;;;;;;;4.30;2.70;;;3.50;99.90;;;;;;5002597;28;20863;-70
2021/04/24 00:20:45;;;;;;;5.53;3.60;;;3.40;99.90;;;;;;5003275;28;20464;-70
2021/04/24 00:23:13;;;;;;;8.60;4.50;;;3.40;99.90;;;;;;5019946;28;20447;-69
2021/04/24 00:25:40;;;;;;;7.87;5.37;;;3.40;99.90;;;;;;5018991;28;20468;-69
2021/04/24 00:28:11;;;;;;;5.50;3.40;;;3.30;99.90;;;;;;5018379;28;20424;-70
2021/04/24 00:30:39;;;;;;;5.40;3.43;;;3.30;99.90;;;;;;5016931;28;20961;-71
2021/04/24 00:33:09;;;;;;;5.83;3.93;;;3.30;99.90;;;;;;5019986;28;20807;-71
2021/04/24 00:35:36;;;;;;;4.60;3.23;;;3.20;99.90;;;;;;5021017;28;20531;-71
2021/04/24 00:38:04;;;;;;;4.00;3.47;;;3.10;99.90;;;;;;5021306;28;20511;-73
2021/04/24 00:40:32;;;;;;;9.27;3.97;;;3.00;99.90;;;;;;5021529;28;20474;-71
2021/04/24 00:43:01;;;;;;;9.90;3.83;;;3.00;99.90;;;;;;5002992;28;20524;-71
2021/04/24 00:45:33;;;;;;;4.53;3.60;;;3.00;99.90;;;;;;5021153;28;20482;-71
2021/04/24 00:48:01;;;;;;;3.90;3.33;;;3.00;99.90;;;;;;5022151;28;20441;-71
2021/04/24 00:50:35;;;;;;;4.70;3.97;;;2.90;99.90;;;;;;5003596;28;20479;-71
2021/04/24 00:53:04;;;;;;;6.20;4.77;;;2.90;99.90;;;;;;5021234;28;20448;-71
2021/04/24 00:55:31;;;;;;;4.43;3.63;;;3.00;99.90;;;;;;5020025;28;20459;-69
2021/04/24 00:57:59;;;;;;;4.83;3.83;;;3.00;99.90;;;;;;5002309;28;20494;-71
2021/04/24 01:00:27;;;;;;;4.80;4.10;;;3.00;99.90;;;;;;5020132;28;20499;-71
2021/04/24 01:02:57;;;;;;;10.37;3.97;;;3.00;99.90;;;;;;5003836;28;20959;-73
2021/04/24 01:05:28;;;;;;;4.60;3.80;;;2.90;99.90;;;;;;5020845;28;20995;-71
2021/04/24 01:07:55;;;;;;;5.20;3.60;;;2.80;99.90;;;;;;5003741;28;20475;-72
2021/04/24 01:10:23;;;;;;;5.60;3.80;;;2.70;99.90;;;;;;5020400;28;20850;-70
2021/04/24 01:12:51;;;;;;;11.77;6.13;;;2.80;99.90;;;;;;5020224;28;20455;-70
2021/04/24 01:15:19;;;;;;;7.27;5.60;;;2.80;99.90;;;;;;5018901;28;20507;-70
2021/04/24 01:17:47;;;;;;;8.40;4.13;;;2.70;99.90;;;;;;5003346;28;20452;-70
2021/04/24 01:20:17;;;;;;;6.67;4.20;;;2.70;99.90;;;;;;5003894;28;20611;-70
2021/04/24 01:22:47;;;;;;;7.27;3.40;;;2.70;99.90;;;;;;5020887;28;20439;-71
2021/04/24 01:25:18;;;;;;;5.13;4.37;;;2.70;99.90;;;;;;5003901;28;20486;-70
2021/04/24 01:30:45;;;;;;;5.20;4.13;;;2.60;99.90;;;;;;4999605;28;20477;-71
2021/04/24 01:33:15;;;;;;;8.83;4.53;;;2.60;99.90;;;;;;5001428;28;20449;-70
2021/04/24 01:35:44;;;;;;;5.17;3.70;;;2.60;99.90;;;;;;4997534;28;20452;-70
2021/04/24 01:38:13;;;;;;;7.47;5.10;;;2.50;99.90;;;;;;5014282;28;20436;-71
2021/04/24 01:40:43;;;;;;;6.50;4.10;;;2.60;99.90;;;;;;5001235;28;20527;-70
2021/04/24 01:43:10;;;;;;;6.97;4.33;;;2.50;99.90;;;;;;5002575;28;20520;-70
2021/04/24 01:45:38;;;;;;;3.90;3.40;;;2.50;99.90;;;;;;4998971;28;20559;-70
2021/04/24 01:48:07;;;;;;;6.10;4.10;;;2.40;99.90;;;;;;4984312;28;20488;-71
2021/04/24 01:50:37;;;;;;;4.80;4.30;;;2.40;99.90;;;;;;5000885;28;20460;-71
2021/04/24 01:53:07;;;;;;;7.83;4.33;;;2.40;99.90;;;;;;5001766;28;20516;-71
2021/04/24 01:55:39;;;;;;;6.73;4.20;;;2.30;99.90;;;;;;5000576;28;20464;-71
2021/04/24 01:58:08;;;;;;;5.03;4.37;;;2.30;99.90;;;;;;4983925;28;20445;-74
2021/04/24 02:00:42;;;;;;;6.17;3.70;;;2.20;99.90;;;;;;5000285;28;20473;-71
2021/04/24 02:03:11;;;;;;;4.30;3.90;;;2.10;99.90;;;;;;5001164;28;20940;-71
2021/04/24 02:05:40;;;;;;;5.33;4.20;;;2.10;99.90;;;;;;5016800;28;20941;-71
2021/04/24 02:08:11;;;;;;;5.60;3.50;;;2.10;99.90;;;;;;5000466;28;20437;-71
2021/04/24 02:10:42;;;;;;;7.70;4.57;;;2.10;99.90;;;;;;5000858;28;20579;-71
2021/04/24 02:13:13;;;;;;;5.43;4.37;;;2.10;99.90;;;;;;5015692;28;20433;-71
2021/04/24 02:15:41;;;;;;;5.33;3.90;;;2.10;99.90;;;;;;5016156;28;20468;-71
2021/04/24 02:18:10;;;;;;;6.13;3.90;;;2.10;99.90;;;;;;5000868;28;20557;-74
2021/04/24 02:20:39;;;;;;;4.90;3.37;;;2.20;99.90;;;;;;5000193;28;20964;-71
2021/04/24 02:23:07;;;;;;;4.73;3.60;;;2.10;99.90;;;;;;4999424;28;20441;-71
2021/04/24 02:25:35;;;;;;;7.10;4.10;;;2.00;99.90;;;;;;5002038;28;20440;-74
2021/04/24 02:28:05;;;;;;;6.60;3.83;;;1.90;99.90;;;;;;5001969;28;20434;-71
2021/04/24 02:30:34;;;;;;;6.63;3.60;;;1.90;99.90;;;;;;5016992;28;20546;-74
2021/04/24 02:33:01;;;;;;;7.57;3.93;;;1.80;99.90;;;;;;5019040;28;20845;-73
2021/04/24 02:35:34;;;;;;;5.50;3.23;;;1.70;99.90;;;;;;5003668;28;20436;-71
2021/04/24 02:38:03;;;;;;;8.05;4.75;;;1.70;99.90;;;;;;5020171;28;20416;-71
2021/04/24 02:40:30;;;;;;;6.45;4.10;;;1.70;99.90;;;;;;5020592;28;20417;-70
2021/04/24 02:42:57;;;;;;;5.50;3.92;;;1.70;99.90;;;;;;5003524;28;20417;-71
2021/04/24 02:48:19;;;;;;;5.07;4.30;;;1.80;99.90;;;;;;5019889;28;20467;-71
2021/04/24 02:50:47;;;;;;;6.40;3.83;;;1.80;99.90;;;;;;5002992;28;20420;-71
2021/04/24 02:53:14;;;;;;;6.00;4.20;;;1.70;99.90;;;;;;5001978;28;20801;-71
2021/04/24 02:55:42;;;;;;;6.45;3.80;;;1.70;99.90;;;;;;5001025;28;20804;-71
2021/04/24 02:58:09;;;;;;;6.00;4.40;;;1.60;99.90;;;;;;5019018;28;20888;-73
2021/04/24 03:00:38;;;;;;;7.23;4.10;;;1.50;99.90;;;;;;5011821;28;20486;-71
2021/04/24 03:03:08;;;;;;;5.43;3.95;;;1.50;99.90;;;;;;4980074;28;20420;-71
2021/04/24 03:05:36;;;;;;;8.98;4.05;;;1.50;99.90;;;;;;4979646;28;20420;-71
2021/04/24 03:08:04;;;;;;;5.22;4.05;;;1.50;99.90;;;;;;4981553;28;20451;-73
2021/04/24 03:10:32;;;;;;;7.95;4.35;;;1.40;99.90;;;;;;4964128;28;20510;-71
2021/04/24 03:13:25;;;;;;;9.02;4.45;;;1.30;99.90;;;;;;4979503;28;20431;-71
2021/04/24 03:18:53;;;;;;;7.45;4.20;;;1.30;99.90;;;;;;4979757;28;20416;-74
2021/04/24 03:21:20;;;;;;;6.10;3.78;;;1.20;99.90;;;;;;4981117;28;20431;-70
2021/04/24 03:23:48;;;;;;;5.03;3.97;;;1.20;99.90;;;;;;4980941;28;20440;-71
2021/04/24 03:26:40;;;;;;;6.93;4.40;;;1.20;99.90;;;;;;4981142;28;20416;-73
2021/04/24 03:29:08;;;;;;;6.88;4.35;;;1.10;99.90;;;;;;4981438;28;20430;-71
2021/04/24 03:31:37;;;;;;;7.85;4.20;;;1.10;99.90;;;;;;4987124;28;20902;-71
2021/04/24 03:34:04;;;;;;;6.75;4.43;;;1.10;99.90;;;;;;4995738;28;20430;-71
2021/04/24 03:36:32;;;;;;;6.93;4.60;;;1.10;99.90;;;;;;4995641;28;20420;-71
2021/04/24 03:39:00;;;;;;;8.85;4.97;;;1.00;99.90;;;;;;4979715;28;20420;-71
2021/04/24 03:41:28;;;;;;;6.82;4.60;;;0.90;99.90;;;;;;4979386;28;20432;-71
2021/04/24 03:43:55;;;;;;;7.60;4.75;;;1.00;99.90;;;;;;4981252;28;20458;-71
2021/04/24 03:46:25;;;;;;;7.93;4.60;;;1.10;99.90;;;;;;4988599;28;20455;-71
2021/04/24 03:48:54;;;;;;;8.50;5.22;;;1.20;99.90;;;;;;4980939;28;20408;-71
2021/04/24 03:51:21;;;;;;;7.63;5.20;;;1.20;99.90;;;;;;4980717;28;20439;-71
2021/04/24 03:53:49;;;;;;;6.70;5.10;;;1.20;99.90;;;;;;4980160;28;20416;-71
2021/04/24 03:56:17;;;;;;;8.20;5.07;;;1.20;99.90;;;;;;4962963;28;20422;-70
2021/04/24 03:58:45;;;;;;;9.20;5.35;;;1.20;99.90;;;;;;4979668;28;21019;-70
2021/04/24 04:01:13;;;;;;;11.82;5.10;;;1.10;99.90;;;;;;4958253;29;20429;-71
2021/04/24 04:03:40;;;;;;;12.18;6.18;;;1.10;99.90;;;;;;4944242;29;20414;-71
2021/04/24 04:06:08;;;;;;;11.90;5.10;;;1.10;99.90;;;;;;4964892;29;20426;-71
2021/04/24 04:08:36;;;;;;;9.55;5.93;;;1.10;99.90;;;;;;4964529;29;20476;-71
2021/04/24 04:11:03;;;;;;;9.18;4.63;;;1.10;99.90;;;;;;4947137;29;20417;-71
2021/04/24 04:13:31;;;;;;;7.43;5.80;;;1.10;99.90;;;;;;4962781;29;20433;-71
2021/04/24 04:18:55;;;;;;;10.60;5.32;;;1.10;99.90;;;;;;4980715;28;20412;-71
2021/04/24 04:21:24;;;;;;;12.73;5.82;;;1.20;99.90;;;;;;4980361;28;20762;-71
2021/04/24 04:23:57;;;;;;;11.02;5.00;;;1.20;99.90;;;;;;4981557;28;20499;-70
2021/04/24 04:26:25;;;;;;;8.48;4.70;;;1.20;99.90;;;;;;4947113;28;20439;-71
2021/04/24 04:28:54;;;;;;;6.30;4.50;;;1.20;99.90;;;;;;4981205;28;21030;-70
2021/04/24 04:31:22;;;;;;;7.65;4.90;;;1.20;99.90;;;;;;4963153;28;20404;-71
2021/04/24 04:33:49;;;;;;;10.23;4.80;;;1.20;99.90;;;;;;4982687;28;20408;-72
2021/04/24 04:36:21;;;;;;;7.13;5.18;;;1.20;99.90;;;;;;4983311;28;20451;-71
2021/04/24 04:38:50;;;;;;;7.80;4.50;;;1.30;99.90;;;;;;4966279;28;20420;-71
2021/04/24 04:41:18;;;;;;;8.97;5.23;;;1.30;99.90;;;;;;4965477;28;20436;-71
2021/04/24 04:43:46;;;;;;;8.93;4.35;;;1.30;99.90;;;;;;4983497;28;20506;-71
2021/04/24 04:46:14;;;;;;;10.85;4.53;;;1.40;99.90;;;;;;4956209;28;20425;-72
2021/04/24 04:48:42;;;;;;;7.15;4.65;;;1.50;99.90;;;;;;5001893;28;20489;-71
2021/04/24 04:51:11;;;;;;;7.80;4.38;;;1.50;99.90;;;;;;5001119;28;20411;-74
2021/04/24 04:53:39;;;;;;;7.22;4.95;;;1.60;99.90;;;;;;5000774;28;20422;-71
2021/04/24 04:56:23;;;;;;;5.57;4.30;;;1.60;99.90;;;;;;5000230;28;20449;-70
2021/04/24 04:58:51;;;;;;;6.75;4.15;;;1.70;99.90;;;;;;4983345;28;20406;-70
2021/04/24 05:01:20;;;;;;;7.80;5.30;;;1.80;99.90;;;;;;4957076;28;20539;-70
2021/04/24 05:03:48;;;;;;;6.75;4.88;;;1.90;99.90;;;;;;4980866;28;20404;-73
2021/04/24 05:06:15;;;;;;;6.20;4.43;;;2.10;99.90;;;;;;4980582;28;20475;-70
2021/04/24 05:08:43;;;;;;;8.43;5.47;;;2.20;99.90;;;;;;4961337;28;20428;-70
2021/04/24 05:11:10;;;;;;;7.47;4.65;;;2.40;99.90;;;;;;4976114;28;20416;-71
2021/04/24 05:14:04;;;;;;;7.05;4.70;;;2.40;99.90;;;;;;4977580;28;20411;-71
2021/04/24 05:16:32;;;;;;;7.18;5.05;;;2.60;99.90;;;;;;4975897;28;20416;-71
2021/04/24 05:18:59;;;;;;;8.18;4.43;;;2.70;99.90;;;;;;4977072;28;20471;-71
2021/04/24 05:21:27;;;;;;;9.88;5.90;;;2.90;99.90;;;;;;4959889;28;20467;-71
2021/04/24 05:23:59;;;;;;;8.02;5.03;;;3.00;99.90;;;;;;4977391;28;20896;-72
2021/04/24 05:26:27;;;;;;;7.47;4.88;;;3.00;99.90;;;;;;4978737;28;20499;-71
2021/04/24 05:28:55;;;;;;;9.13;5.15;;;3.10;99.90;;;;;;4976762;28;20969;-72
2021/04/24 05:31:23;;;;;;;5.07;4.17;;;3.30;99.90;;;;;;4978628;28;20242;-71
2021/04/24 05:33:52;;;;;;;5.07;4.63;;;3.40;99.90;;;;;;4979391;28;20474;-71
2021/04/24 05:36:20;;;;;;;8.03;3.90;;;3.60;99.90;;;;;;4978694;28;20434;-70
2021/04/24 05:38:49;;;;;;;6.00;4.30;;;3.70;99.90;;;;;;4979025;28;20438;-71
2021/04/24 05:41:21;;;;;;;8.50;4.00;;;3.80;99.90;;;;;;4960887;28;20508;-71
2021/04/24 05:43:49;;;;;;;6.43;3.70;;;3.90;99.90;;;;;;4978430;28;20441;-70
2021/04/24 05:46:19;;;;;;;8.23;6.40;;;4.00;99.90;;;;;;4976659;28;20485;-71
2021/04/24 05:48:48;;;;;;;8.87;4.53;;;4.00;99.90;;;;;;4979409;28;20434;-72
2021/04/24 05:51:17;;;;;;;6.53;4.60;;;4.00;99.90;;;;;;4961826;28;20883;-71
2021/04/24 05:53:46;;;;;;;10.17;6.60;;;4.20;99.90;;;;;;4979350;28;21004;-71
2021/04/24 05:56:14;;;;;;;8.40;4.87;;;4.30;99.90;;;;;;4961562;28;20441;-71
2021/04/24 05:58:42;;;;;;;6.93;4.10;;;4.50;99.90;;;;;;4978347;28;20434;-71
2021/04/24 06:01:11;;;;;;;8.03;4.20;;;4.70;99.90;;;;;;4973512;28;20546;-72
2021/04/24 06:03:40;;;;;;;4.27;3.47;;;5.10;99.90;;;;;;4979523;28;20442;-71
2021/04/24 06:06:11;;;;;;;10.73;4.90;;;5.60;99.90;;;;;;4978403;28;20784;-69
2021/04/24 06:08:39;;;;;;;6.23;4.40;;;6.00;99.90;;;;;;4979677;28;20442;-70
2021/04/24 06:11:07;;;;;;;7.90;4.43;;;6.40;99.90;;;;;;4980535;28;20442;-70
2021/04/24 06:16:27;;;;;;;6.40;4.07;;;7.60;99.90;;;;;;4944068;29;20482;-70
2021/04/24 06:18:59;;;;;;;5.50;4.00;;;8.20;97.80;;;;;;4961738;29;20440;-70
2021/04/24 06:21:30;;;;;;;6.00;4.20;;;9.00;95.90;;;;;;4960385;29;20465;-70
2021/04/24 06:24:47;;;;;;;4.83;4.20;;;9.90;93.70;;;;;;4959342;29;20476;-70
2021/04/24 06:27:16;;;;;;;7.63;4.67;;;10.20;90.90;;;;;;4959418;28;21245;-71
2021/04/24 06:29:46;;;;;;;5.03;4.17;;;10.40;90.70;;;;;;4960344;29;20527;-69
2021/04/24 06:32:15;;;;;;;4.70;3.57;;;11.00;89.00;;;;;;4976225;28;20773;-70
2021/04/24 06:34:44;;;;;;;6.60;4.03;;;11.10;87.10;;;;;;4978928;28;20505;-69
2021/04/24 06:37:13;;;;;;;6.43;4.07;;;12.00;86.20;;;;;;4960825;28;20497;-70
2021/04/24 06:39:42;;;;;;;6.03;4.57;;;12.40;82.70;;;;;;4979460;28;20451;-69
2021/04/24 06:42:15;;;;;;;5.63;4.20;;;13.10;79.70;;;;;;4979952;28;20775;-71
2021/04/24 06:44:47;;;;;;;13.03;5.10;;;14.00;76.40;;;;;;4978673;28;20543;-69
2021/04/24 06:47:17;;;;;;;7.20;4.80;;;13.70;73.00;;;;;;4976506;28;20481;-69
2021/04/24 06:49:45;;;;;;;7.40;5.10;;;13.80;73.00;;;;;;4959023;28;20516;-69
2021/04/24 06:52:17;;;;;;;6.40;5.23;;;12.90;73.80;;;;;;4975396;28;20991;-69
2021/04/24 06:54:46;;;;;;;7.07;4.27;;;13.30;74.70;;;;;;4977628;28;20444;-69
2021/04/24 06:57:13;;;;;;;6.77;4.47;;;13.50;71.90;;;;;;4975826;28;20435;-69
2021/04/24 06:59:43;;;;;;;11.57;8.80;;;13.40;72.10;;;;;;4975842;28;20912;-70
2021/04/24 07:02:13;;;;;;;8.10;5.57;;;14.60;70.20;;;;;;4976788;28;20842;-69
2021/04/24 07:04:41;;;;;;;7.63;5.60;;;15.30;65.80;;;;;;4976953;28;20448;-69
2021/04/24 07:07:11;;;;;;;9.47;4.47;;;15.20;64.60;;;;;;4977987;28;20461;-69
2021/04/24 07:09:43;;;;;;;6.70;4.63;;;16.00;64.30;;;;;;4976702;28;20444;-69
2021/04/24 07:12:12;;;;;;;9.80;7.90;;;15.70;62.30;;;;;;4977276;28;20441;-69
2021/04/24 07:14:39;;;;;;;7.23;5.23;;;15.90;60.10;;;;;;4976052;28;20448;-69
2021/04/24 07:17:08;;;;;;;9.03;6.27;;;15.60;59.60;;;;;;4977359;28;20848;-69
2021/04/24 07:19:43;;;;;;;6.13;4.70;;;16.00;58.80;;;;;;4977662;28;20480;-69
2021/04/24 07:22:11;;;;;;;7.27;4.73;;;16.50;59.10;;;;;;4961231;28;20841;-69
2021/04/24 07:24:44;;;;;;;7.23;5.23;;;17.00;55.70;;;;;;4979027;28;20438;-68
2021/04/24 07:27:13;;;;;;;7.20;5.50;;;17.40;55.30;;;;;;4961976;28;20434;-73
2021/04/24 07:29:41;;;;;;;5.97;5.10;;;17.30;54.20;;;;;;4977749;28;20469;-68
2021/04/24 07:32:09;;;;;;;8.90;5.30;;;18.10;53.40;;;;;;4978114;28;20458;-68
2021/04/24 07:34:37;;;;;;;6.80;4.50;;;16.80;53.10;;;;;;4979068;28;20445;-68
2021/04/24 07:37:05;;;;;;;7.40;5.00;;;16.50;54.00;;;;;;4978844;28;20798;-70
2021/04/24 07:39:32;;;;;;;7.23;4.70;;;16.90;53.60;;;;;;4981583;28;20440;-69
2021/04/24 07:42:01;;;;;;;6.60;4.47;;;18.60;53.70;;;;;;4982954;28;20462;-67
2021/04/24 07:44:28;;;;;;;8.43;4.93;;;19.30;50.00;;;;;;4965254;28;20422;-68
2021/04/24 07:46:56;;;;;;;7.67;6.90;;;18.70;47.20;;;;;;4981257;28;20942;-68
2021/04/24 07:49:24;;;;;;;15.50;13.50;;;18.50;48.60;;;;;;4981017;28;20445;-69
2021/04/24 07:51:52;;;;;;;9.90;8.13;;;18.70;49.00;;;;;;4983254;28;20438;-68
2021/04/24 07:54:20;;;;;;;9.00;5.30;;;21.00;48.20;;;;;;4965823;28;20461;-68
2021/04/24 07:56:48;;;;;;;5.70;4.50;;;20.70;43.90;;;;;;4965143;28;20458;-68
2021/04/24 07:59:17;;;;;;;4.63;4.17;;;20.30;43.00;;;;;;4983229;28;20430;-68
2021/04/24 08:01:45;;;;;;;6.47;4.20;;;19.40;43.70;;;;;;4982445;28;20490;-68
2021/04/24 08:04:13;;;;;;;6.67;4.60;;;18.70;46.10;;;;;;4982637;28;20441;-68
2021/04/24 08:06:40;;;;;;;4.40;4.00;;;19.40;46.60;;;;;;4984019;28;20444;-71
2021/04/24 08:09:09;;;;;;;5.63;4.30;;;19.80;43.90;;;;;;4966641;28;20446;-68
2021/04/24 08:11:39;;;;;;;6.40;4.20;;;20.50;44.30;;;;;;4966872;28;20430;-68
2021/04/24 08:14:07;;;;;;;6.80;5.00;;;19.90;42.70;;;;;;4983071;28;20996;-68
2021/04/24 08:16:36;;;;;;;4.63;4.10;;;20.40;43.40;;;;;;4981096;28;20515;-68
2021/04/24 08:19:04;;;;;;;4.80;4.30;;;21.10;42.40;;;;;;4964349;28;20922;-68
2021/04/24 08:21:59;;;;;;;5.63;4.07;;;21.80;41.70;;;;;;4981876;28;20478;-71
2021/04/24 08:24:29;;;;;;;4.23;3.90;;;23.00;38.50;;;;;;4982236;28;20438;-67
2021/04/24 08:26:57;;;;;;;12.47;9.37;;;21.80;35.70;;;;;;4982217;28;20437;-68
2021/04/24 08:29:25;;;;;;;17.93;14.00;;;22.10;36.60;;;;;;4964672;28;20497;-70
2021/04/24 08:31:58;;;;;;;6.60;4.23;;;22.40;35.90;;;;;;4982094;28;20511;-67
2021/04/24 08:34:28;;;;;;;4.70;3.90;;;21.90;35.80;;;;;;4980924;28;20438;-68
2021/04/24 08:36:56;;;;;;;5.93;4.03;;;21.20;37.30;;;;;;4982668;28;20445;-68
2021/04/24 08:39:26;;;;;;;5.30;3.87;;;23.10;36.20;;;;;;4983161;28;20477;-69
2021/04/24 08:41:54;;;;;;;6.80;3.80;;;21.90;35.70;;;;;;4982331;28;20830;-68
2021/04/24 08:44:22;;;;;;;5.30;4.20;;;23.10;36.10;;;;;;4982203;28;20448;-69
2021/04/24 08:46:51;;;;;;;5.60;4.00;;;24.40;35.20;;;;;;4981194;28;20497;-68
2021/04/24 08:49:22;;;;;;;5.47;4.00;;;21.80;33.60;;;;;;4982947;28;20426;-68
2021/04/24 08:51:52;;;;;;;5.33;3.40;;;23.60;34.80;;;;;;4963990;28;20852;-69
2021/04/24 08:54:20;;;;;;;5.07;4.50;;;24.20;33.20;;;;;;4981259;28;20430;-73
2021/04/24 08:56:49;;;;;;;6.90;4.00;;;24.60;32.30;;;;;;4980497;28;20465;-69
2021/04/24 08:59:17;;;;;;;6.67;3.80;;;23.70;32.60;;;;;;4980714;28;20457;-68
2021/04/24 09:01:45;;;;;;;4.63;3.63;;;21.90;33.60;;;;;;4978566;28;20482;-68
2021/04/24 09:04:15;;;;;;;4.80;4.30;;;22.60;34.40;;;;;;4981406;28;20935;-69
2021/04/24 09:06:45;;;;;;;4.30;3.53;;;22.60;34.50;;;;;;4980974;28;20500;-74
2021/04/24 09:09:14;;;;;;;4.00;3.27;;;23.20;34.50;;;;;;4981021;28;20433;-69
2021/04/24 09:11:43;;;;;;;4.37;3.73;;;24.30;33.10;;;;;;4980297;28;20973;-69
2021/04/24 09:14:15;;;;;;;5.23;4.50;;;25.40;32.30;;;;;;4979223;28;20438;-68
2021/04/24 09:16:45;;;;;;;4.50;3.50;;;26.40;29.30;;;;;;4978001;28;20528;-70
2021/04/24 09:19:30;;;;;;;6.13;4.40;;;27.10;29.20;;;;;;4979453;28;20496;-69
2021/04/24 09:22:26;;;;;;;5.97;3.40;;;23.70;31.80;;;;;;4979951;28;20556;-72
2021/04/24 09:24:55;;;;;;;4.10;2.97;;;24.00;32.10;;;;;;4966449;28;20473;-69
2021/04/24 09:27:42;;;;;;;3.97;3.43;;;25.80;31.50;;;;;;4960517;28;20508;-71
2021/04/24 09:30:18;;;;;;;5.47;3.10;;;24.80;29.60;;;;;;4977882;28;20473;-70
2021/04/24 09:32:47;;;;;;;6.00;3.77;;;24.20;30.00;;;;;;4960143;28;20466;-70
2021/04/24 09:35:19;;;;;;;5.53;3.60;;;22.30;30.70;;;;;;4961502;28;20438;-70
2021/04/24 09:38:03;;;;;;;5.30;3.70;;;22.90;32.20;;;;;;4980807;28;20438;-72
2021/04/24 09:40:34;;;;;;;5.27;3.10;;;22.40;33.80;;;;;;4979247;28;20501;-74
2021/04/24 09:43:05;;;;;;;7.70;4.00;;;23.20;32.60;;;;;;4980028;28;20468;-73
2021/04/24 09:45:40;;;;;;;5.77;3.57;;;22.30;32.90;;;;;;4979282;28;20434;-76
2021/04/24 09:48:20;;;;;;;5.80;3.90;;;22.70;34.60;;;;;;4962867;28;20497;-69
2021/04/24 09:50:48;;;;;;;5.87;3.60;;;23.10;33.20;;;;;;4979451;28;20430;-69
2021/04/24 09:53:20;;;;;;;5.47;3.80;;;23.00;33.20;;;;;;4979308;28;20445;-75
2021/04/24 09:55:51;;;;;;;5.30;4.77;;;23.10;32.20;;;;;;4979190;28;20439;-70
2021/04/24 10:01:22;;;;;;;8.10;5.00;;;23.00;33.50;;;;;;4977551;28;20565;-68
2021/04/24 10:03:52;;;;;;;6.93;3.80;;;23.80;31.90;;;;;;4946416;28;20426;-70
2021/04/24 10:06:32;;;;;;;5.10;3.97;;;23.60;31.10;;;;;;4978401;28;20442;-69
2021/04/24 10:09:24;;;;;;;4.83;3.07;;;23.30;32.40;;;;;;4978999;28;20468;-70
2021/04/24 10:12:03;;;;;;;4.73;3.90;;;23.80;32.70;;;;;;4977875;28;20450;-69
2021/04/24 10:14:34;;;;;;;5.73;3.50;;;23.70;32.00;;;;;;4959701;28;20530;-70
2021/04/24 10:17:05;;;;;;;6.63;3.70;;;24.50;31.50;;;;;;4959904;28;20482;-70
2021/04/24 10:19:34;;;;;;;4.17;3.67;;;27.50;28.50;;;;;;4976809;28;20489;-70
2021/04/24 10:22:04;;;;;;;7.20;3.67;;;26.30;28.80;;;;;;4976284;28;20994;-72
2021/04/24 10:24:34;;;;;;;5.47;3.87;;;27.90;27.60;;;;;;4976362;28;20461;-71
2021/04/24 10:27:03;;;;;;;4.10;3.17;;;25.40;28.30;;;;;;4976144;28;20465;-70
2021/04/24 10:29:32;;;;;;;4.03;3.63;;;25.00;29.60;;;;;;4955556;29;20482;-72
2021/04/24 10:32:00;;;;;;;4.87;3.60;;;27.20;28.70;;;;;;4955509;28;20481;-71
2021/04/24 10:34:27;;;;;;;6.23;3.90;;;27.10;27.20;;;;;;4955813;29;20475;-71
2021/04/24 10:36:56;;;;;;;4.23;3.50;;;28.90;26.50;;;;;;4954790;29;20435;-70
2021/04/24 10:39:26;;;;;;;4.67;4.10;;;29.40;24.90;;;;;;4955682;29;20938;-71
2021/04/24 10:42:03;;;;;;;4.23;3.83;;;25.40;26.40;;;;;;4956860;29;20470;-71
2021/04/24 10:44:52;;;;;;;4.23;3.50;;;24.30;28.10;;;;;;4956941;28;20435;-71
2021/04/24 10:47:55;;;;;;;5.27;3.27;;;22.90;29.70;;;;;;4972693;28;20479;-71
2021/04/24 10:50:32;;;;;;;6.60;3.87;;;25.80;29.20;;;;;;4958410;28;20454;-71
2021/04/24 10:53:18;;;;;;;4.60;3.47;;;26.10;27.60;;;;;;4958618;28;20435;-69
2021/04/24 10:55:46;;;;;;;6.90;4.80;;;24.20;29.10;;;;;;4958210;28;20443;-71
2021/04/24 10:58:17;;;;;;;5.97;4.60;;;24.00;30.30;;;;;;4958109;28;20527;-74
2021/04/24 11:00:55;;;;;;;4.83;4.30;;;25.20;30.00;;;;;;4956207;28;20482;-72
2021/04/24 11:03:50;;;;;;;4.83;3.10;;;25.60;28.10;;;;;;4956768;29;20466;-73
2021/04/24 11:06:21;;;;;;;5.07;4.03;;;25.60;27.40;;;;;;4952972;28;20447;-72
2021/04/24 11:08:52;;;;;;;8.50;3.27;;;25.00;26.80;;;;;;4958990;29;20495;-71
2021/04/24 11:11:20;;;;;;;8.00;4.13;;;24.80;28.90;;;;;;4956785;29;20455;-71
2021/04/24 11:13:54;;;;;;;4.40;3.63;;;23.00;29.70;;;;;;4956632;28;20463;-72
2021/04/24 11:16:24;;;;;;;5.40;3.30;;;22.60;30.10;;;;;;4955353;28;20493;-74
2021/04/24 11:18:54;;;;;;;4.47;4.00;;;23.30;31.00;;;;;;4957273;29;20439;-73
2021/04/24 11:21:27;;;;;;;4.50;3.93;;;24.20;30.30;;;;;;4988692;28;20451;-70
2021/04/24 11:24:01;;;;;;;8.40;3.90;;;25.20;29.50;;;;;;4958478;29;20439;-71
2021/04/24 11:26:50;;;;;;;5.97;4.50;;;25.40;29.70;;;;;;4957969;28;20417;-69
2021/04/24 11:29:23;;;;;;;5.63;3.95;;;24.90;29.40;;;;;;4965473;28;20428;-71
2021/04/24 11:31:57;;;;;;;8.90;4.22;;;24.80;29.30;;;;;;4976922;28;20761;-71
2021/04/24 11:34:36;;;;;;;5.60;4.57;;;24.70;27.90;;;;;;4980057;28;20772;-70
2021/04/24 11:37:41;;;;;;;15.93;10.82;;;24.70;27.90;;;;;;4979082;28;20476;-64
2021/04/24 11:40:19;;;;;;;4.38;3.92;;;22.90;29.00;;;;;;4980276;28;20419;-65
2021/04/24 11:43:12;;;;;;;5.57;4.30;;;22.90;29.60;;;;;;4983621;28;20423;-66
2021/04/24 11:46:12;;;;;;;4.60;4.03;;;22.40;30.00;;;;;;4973214;28;20447;-66
2021/04/24 11:49:01;;;;;;;7.97;4.40;;;22.10;31.40;;;;;;4989000;28;20446;-68
2021/04/24 11:51:36;;;;;;;8.50;4.60;;;20.80;32.90;;;;;;4993360;28;20486;-70
2021/04/24 11:54:07;;;;;;;7.45;4.50;;;21.20;33.30;;;;;;4992376;28;20420;-69
2021/04/24 11:56:35;;;;;;;7.10;4.55;;;20.90;34.20;;;;;;4974535;28;20487;-66
2021/04/24 11:59:05;;;;;;;6.75;4.10;;;19.90;33.00;;;;;;4975840;28;20423;-67
2021/04/24 12:01:34;;;;;;;8.70;5.20;;;19.90;34.80;;;;;;4994443;28;20427;-67
2021/04/24 12:04:03;;;;;;;5.35;4.38;;;19.20;34.50;;;;;;4994150;28;20443;-67
2021/04/24 12:06:35;;;;;;;6.60;5.00;;;20.40;35.50;;;;;;4995252;28;20408;-68
2021/04/24 12:09:07;;;;;;;6.18;4.35;;;20.20;34.90;;;;;;5009734;28;20785;-67
2021/04/24 12:11:35;;;;;;;6.07;4.60;;;20.80;35.90;;;;;;4994733;28;20474;-67
2021/04/24 12:14:04;;;;;;;14.35;5.35;;;20.50;35.40;;;;;;4992083;28;20475;-72
2021/04/24 12:16:49;;;;;;;6.18;4.88;;;20.10;35.60;;;;;;4993805;28;20447;-68
2021/04/24 12:19:31;;;;;;;8.90;4.50;;;20.40;35.70;;;;;;4994430;28;20427;-70
2021/04/24 12:22:09;;;;;;;6.07;4.20;;;21.50;35.10;;;;;;5010900;28;20408;-67
2021/04/24 12:24:53;;;;;;;4.80;4.30;;;21.30;33.20;;;;;;4995904;28;20419;-69
2021/04/24 12:27:26;;;;;;;6.18;3.72;;;20.40;36.00;;;;;;4964287;28;20425;-68
2021/04/24 12:29:55;;;;;;;6.18;4.50;;;19.90;35.70;;;;;;4994588;28;20440;-71
2021/04/24 12:32:29;;;;;;;7.80;5.55;;;19.90;36.10;;;;;;4992947;28;20421;-70
2021/04/24 12:35:08;;;;;;;8.10;4.32;;;18.90;36.70;;;;;;4997572;28;20423;-72
2021/04/24 12:37:37;;;;;;;4.70;4.07;;;18.60;37.70;;;;;;4998696;28;20424;-72
2021/04/24 12:40:12;;;;;;;9.05;4.90;;;19.00;38.60;;;;;;4993451;28;20444;-71
2021/04/24 12:42:40;;;;;;;6.20;4.20;;;19.70;38.10;;;;;;4992605;28;20423;-71
2021/04/24 12:45:17;;;;;;;8.50;4.80;;;19.90;36.40;;;;;;4993797;28;20826;-71
2021/04/24 12:47:50;;;;;;;6.47;4.85;;;19.70;36.40;;;;;;4993603;28;20414;-72
2021/04/24 12:50:27;;;;;;;6.13;4.10;;;20.20;38.40;;;;;;5008205;28;20578;-71
2021/04/24 12:52:57;;;;;;;9.75;4.45;;;20.10;37.50;;;;;;5002196;28;20473;-71
2021/04/24 12:55:35;;;;;;;5.50;4.28;;;19.50;38.10;;;;;;5002707;28;20465;-71
2021/04/24 12:58:05;;;;;;;5.35;4.20;;;19.40;38.00;;;;;;5002639;28;20434;-72
2021/04/24 13:00:39;;;;;;;6.00;4.50;;;20.00;38.70;;;;;;4979485;28;20435;-72
2021/04/24 13:03:28;;;;;;;6.23;4.20;;;19.60;38.30;;;;;;4982588;28;20526;-74
2021/04/24 13:05:58;;;;;;;7.15;4.80;;;20.80;36.70;;;;;;4980763;28;20431;-74
2021/04/24 13:08:26;;;;;;;6.20;4.30;;;21.60;35.60;;;;;;4982211;28;20431;-71
2021/04/24 13:11:09;;;;;;;6.80;4.30;;;19.40;35.80;;;;;;4965881;28;20463;-75
2021/04/24 13:13:41;;;;;;;4.53;3.78;;;19.10;38.70;;;;;;4981497;28;20499;-70
2021/04/24 13:16:35;;;;;;;9.25;4.72;;;19.40;38.50;;;;;;4963652;28;20428;-71
2021/04/24 13:19:06;;;;;;;6.43;4.07;;;20.30;37.80;;;;;;4964725;28;20420;-71
2021/04/24 13:24:31;;;;;;;6.18;4.50;;;19.70;35.60;;;;;;4981980;28;20431;-72
2021/04/24 13:27:09;;;;;;;6.47;4.20;;;20.10;36.50;;;;;;4982541;28;20494;-71
2021/04/24 13:29:40;;;;;;;6.68;4.10;;;19.50;37.80;;;;;;4977305;28;20562;-74
2021/04/24 13:32:12;;;;;;;5.10;4.20;;;19.70;39.10;;;;;;4961744;28;20468;-74